Time;durP1;ratioP1;P1;durP2;ratioP2;P2;SDS_P1;SDS_P2;PMS_P1;PMS_P2;Temp;Humidity;BMP_temperature;BMP_pressure;BME280_temperature;BME280_humidity;BME280_pressure;Samples;Min_cycle;Max_cycle;Signal;HPM_P1;HPM_P2
2021/12/07 00:01:31;;;;;;;26.20;15.40;;;;;;;-2.11;74.01;101378.14;1753234;81;21768;-84
2021/12/07 00:03:57;;;;;;;25.02;14.73;;;;;;;-2.08;74.14;101373.23;1753710;80;21026;-84
2021/12/07 00:06:24;;;;;;;24.60;15.10;;;;;;;-2.08;74.17;101370.28;1753449;81;21096;-83
2021/12/07 00:08:54;;;;;;;31.60;18.17;;;;;;;-2.05;74.14;101363.19;1753396;81;21064;-84
2021/12/07 00:11:19;;;;;;;24.72;14.73;;;;;;;-2.03;74.12;101359.95;1753355;81;21107;-85
2021/12/07 00:13:51;;;;;;;26.57;15.40;;;;;;;-2.02;74.03;101364.75;1748567;81;21081;-84
2021/12/07 00:16:18;;;;;;;25.15;14.90;;;;;;;-2.04;73.85;101367.19;1753114;81;21030;-84
2021/12/07 00:18:46;;;;;;;26.90;13.78;;;;;;;-2.06;73.94;101370.03;1753806;81;21033;-84
2021/12/07 00:21:16;;;;;;;23.52;14.65;;;;;;;-2.06;73.91;101371.71;1753475;81;21057;-84
2021/12/07 00:23:42;;;;;;;25.10;13.58;;;;;;;-2.07;74.01;101371.18;1754019;81;21136;-84
2021/12/07 00:26:12;;;;;;;23.60;13.43;;;;;;;-2.03;74.04;101368.08;1748649;81;21033;-84
2021/12/07 00:28:40;;;;;;;21.27;13.48;;;;;;;-2.04;73.98;101370.16;1753656;81;21077;-85
2021/12/07 00:31:16;;;;;;;27.85;14.10;;;;;;;-2.05;73.95;101356.73;1753935;81;21497;-84
2021/12/07 00:33:51;;;;;;;24.92;13.58;;;;;;;-2.06;73.97;101352.37;1753830;81;21666;-84
2021/12/07 00:36:10;;;;;;;20.72;12.53;;;;;;;-2.04;74.00;101352.11;1752747;81;21022;-84
2021/12/07 00:38:36;;;;;;;16.32;11.40;;;;;;;-2.06;73.90;101352.37;1755024;81;21293;-84
2021/12/07 00:41:03;;;;;;;14.58;10.10;;;;;;;-2.06;73.91;101357.12;1755017;81;21026;-84
2021/12/07 00:43:32;;;;;;;16.23;10.70;;;;;;;-2.06;73.76;101356.23;1755074;81;21061;-83
2021/12/07 00:46:01;;;;;;;15.43;9.65;;;;;;;-2.21;73.59;101341.64;1754780;80;21038;-84
2021/12/07 00:48:29;;;;;;;13.80;9.00;;;;;;;-2.14;73.67;101358.13;1754825;81;21320;-83
2021/12/07 00:50:56;;;;;;;14.50;9.60;;;;;;;-2.16;73.61;101363.55;1755125;81;21740;-84
2021/12/07 00:53:24;;;;;;;15.10;9.48;;;;;;;-2.16;73.72;101373.50;1754717;81;21058;-84
2021/12/07 00:55:53;;;;;;;16.70;10.08;;;;;;;-2.17;73.81;101370.39;1755296;81;21624;-84
2021/12/07 00:58:23;;;;;;;15.18;9.90;;;;;;;-2.15;73.62;101379.16;1755024;81;21615;-84
2021/12/07 01:01:01;;;;;;;14.85;9.33;;;;;;;-2.17;73.66;101380.70;1754966;81;21543;-85
2021/12/07 01:03:28;;;;;;;16.25;11.03;;;;;;;-2.16;73.66;101379.02;1754905;80;21778;-84
2021/12/07 01:06:05;;;;;;;15.93;10.38;;;;;;;-2.17;73.72;101380.70;1755063;81;21104;-83
2021/12/07 01:08:49;;;;;;;13.53;9.30;;;;;;;-2.17;73.55;101383.28;1752852;81;21602;-85
2021/12/07 01:24:42;;;;;;;22.37;12.63;;;;;;;-2.17;73.63;101375.95;1754916;81;21069;-84
2021/12/07 01:27:18;;;;;;;20.40;11.78;;;;;;;-2.17;73.64;101366.92;1755019;81;21061;-84
2021/12/07 01:29:47;;;;;;;17.67;10.32;;;;;;;-2.14;73.76;101369.73;1755051;81;21708;-84
2021/12/07 01:35:21;;;;;;;16.80;11.22;;;;;;;-2.10;73.67;101354.14;1754577;81;21069;-83
2021/12/07 01:37:33;;;;;;;18.67;11.03;;;;;;;-2.09;73.55;101352.09;1749447;81;21560;-85
2021/12/07 01:52:58;;;;;;;13.43;8.73;;;;;;;-2.23;72.87;101352.22;1755041;80;21038;-84
2021/12/07 02:00:53;;;;;;;12.28;7.90;;;;;;;-2.28;72.97;101359.54;1755353;81;21054;-85
2021/12/07 02:03:19;;;;;;;9.95;7.37;;;;;;;-2.26;72.89;101352.84;1755259;81;21073;-85
2021/12/07 02:05:46;;;;;;;16.40;9.10;;;;;;;-2.28;72.69;101357.36;1755480;81;21042;-85
2021/12/07 02:08:13;;;;;;;13.08;8.98;;;;;;;-2.29;72.73;101352.95;1755374;81;21746;-86
2021/12/07 02:10:40;;;;;;;16.52;10.03;;;;;;;-2.26;72.80;101351.95;1755517;81;21027;-86
2021/12/07 02:14:04;;;;;;;17.17;10.25;;;;;;;-2.25;72.77;101355.95;1755007;81;21074;-86
2021/12/07 02:15:50;;;;;;;18.12;10.28;;;;;;;-2.26;72.63;101346.39;1750440;81;21076;-85
2021/12/07 02:18:16;;;;;;;19.30;11.18;;;;;;;-2.27;72.75;101347.18;1755380;81;21097;-85
2021/12/07 02:20:47;;;;;;;15.05;9.15;;;;;;;-2.26;72.86;101347.68;1755323;81;22919;-85
2021/12/07 02:23:14;;;;;;;11.48;8.38;;;;;;;-2.28;72.59;101344.07;1755320;80;21081;-85
2021/12/07 02:25:41;;;;;;;13.65;8.33;;;;;;;-2.27;72.58;101339.45;1755566;81;21123;-85
2021/12/07 02:28:13;;;;;;;11.53;8.43;;;;;;;-2.23;72.69;101338.03;1755354;81;21050;-85
2021/12/07 02:30:36;;;;;;;12.47;8.48;;;;;;;-2.19;72.53;101343.97;1754743;81;21730;-85
2021/12/07 02:33:03;;;;;;;12.00;7.50;;;;;;;-2.22;72.45;101339.82;1757505;81;21714;-85
2021/12/07 02:35:30;;;;;;;10.78;7.12;;;;;;;-2.26;72.30;101341.63;1758903;81;21105;-85
2021/12/07 02:38:00;;;;;;;9.73;7.30;;;;;;;-2.31;72.13;101339.92;1759149;81;21480;-85
2021/12/07 02:40:26;;;;;;;8.20;6.35;;;;;;;-2.32;72.29;101344.59;1759207;81;21057;-85
2021/12/07 02:42:53;;;;;;;11.35;7.10;;;;;;;-2.33;72.20;101338.00;1759266;81;21077;-85
2021/12/07 02:45:21;;;;;;;9.68;6.58;;;;;;;-2.32;72.32;101338.14;1759327;81;22545;-85
2021/12/07 02:47:48;;;;;;;11.22;7.08;;;;;;;-2.31;72.46;101336.06;1759179;81;21563;-85
2021/12/07 02:50:19;;;;;;;8.40;6.17;;;;;;;-2.29;72.29;101342.28;1758532;81;21109;-84
2021/12/07 02:52:50;;;;;;;13.78;7.20;;;;;;;-2.33;72.21;101344.05;1759144;81;21078;-84
2021/12/07 02:55:15;;;;;;;9.90;6.87;;;;;;;-2.31;72.31;101343.80;1758048;81;21535;-83
2021/12/07 02:57:43;;;;;;;9.75;7.17;;;;;;;-2.31;72.28;101345.48;1759053;81;21762;-84
2021/12/07 03:00:17;;;;;;;10.88;6.85;;;;;;;-2.41;72.22;101331.80;1759048;80;21109;-83
2021/12/07 03:02:47;;;;;;;8.68;5.95;;;;;;;-2.33;72.33;101347.92;1758192;80;21065;-83
2021/12/07 03:05:38;;;;;;;8.98;6.25;;;;;;;-2.32;72.25;101351.03;1758534;81;21069;-85
2021/12/07 03:26:51;;;;;;;10.53;6.83;;;;;;;-2.30;72.08;101364.95;1732684;81;21062;-85
2021/12/07 03:29:17;;;;;;;10.45;6.65;;;;;;;-2.30;72.12;101363.67;1759116;81;21057;-85
2021/12/07 03:31:46;;;;;;;10.85;7.15;;;;;;;-2.28;72.11;101365.09;1759152;81;21190;-87
2021/12/07 03:34:13;;;;;;;15.18;7.50;;;;;;;-2.26;72.16;101367.41;1754368;80;21033;-85
2021/12/07 03:36:39;;;;;;;13.32;7.67;;;;;;;-2.26;72.14;101367.02;1754157;81;21831;-85
2021/12/07 03:39:06;;;;;;;13.95;7.15;;;;;;;-2.24;72.12;101361.61;1754127;81;21060;-84
2021/12/07 03:41:35;;;;;;;11.65;7.83;;;;;;;-2.24;72.12;101365.48;1753602;81;21519;-85
2021/12/07 03:44:03;;;;;;;12.05;7.87;;;;;;;-2.26;72.02;101364.84;1748725;81;21061;-85
2021/12/07 03:46:30;;;;;;;11.22;7.25;;;;;;;-2.30;71.98;101366.25;1754074;81;21057;-85
2021/12/07 03:48:57;;;;;;;10.25;6.87;;;;;;;-2.36;71.80;101370.48;1754112;81;21727;-84
2021/12/07 03:51:24;;;;;;;13.15;8.18;;;;;;;-2.40;71.82;101373.97;1754003;81;21029;-85
2021/12/07 03:53:50;;;;;;;9.60;7.05;;;;;;;-2.47;71.74;101378.97;1754093;81;21037;-85
2021/12/07 03:56:17;;;;;;;11.50;7.58;;;;;;;-2.52;71.78;101381.91;1753540;81;21018;-85
2021/12/07 03:58:44;;;;;;;13.15;7.95;;;;;;;-2.58;71.89;101384.47;1754096;81;21750;-85
2021/12/07 04:01:11;;;;;;;12.63;7.40;;;;;;;-2.60;71.92;101386.01;1753583;81;21898;-84
2021/12/07 04:03:38;;;;;;;10.82;6.58;;;;;;;-2.61;71.97;101390.66;1753782;81;21061;-84
2021/12/07 04:06:07;;;;;;;11.73;7.12;;;;;;;-2.69;71.87;101389.06;1700121;81;21047;-84
2021/12/07 04:08:36;;;;;;;10.70;7.10;;;;;;;-2.74;71.83;101396.77;1753533;81;21041;-84
2021/12/07 04:11:03;;;;;;;10.88;7.25;;;;;;;-2.83;71.80;101394.70;1753754;81;21279;-83
2021/12/07 04:13:29;;;;;;;11.03;6.22;;;;;;;-2.89;71.86;101393.77;1749541;81;21807;-84
2021/12/07 04:15:57;;;;;;;10.38;6.80;;;;;;;-2.95;71.88;101388.05;1753849;81;21053;-84
2021/12/07 04:18:24;;;;;;;9.30;7.22;;;;;;;-3.03;71.92;101383.89;1753534;80;21109;-84
2021/12/07 04:20:50;;;;;;;12.82;7.83;;;;;;;-3.05;72.18;101385.43;1753754;81;21531;-84
2021/12/07 04:23:17;;;;;;;11.28;7.20;;;;;;;-3.07;72.23;101382.72;1753799;81;21025;-84
2021/12/07 04:25:44;;;;;;;11.20;6.72;;;;;;;-3.04;72.25;101387.22;1753699;81;21793;-84
2021/12/07 04:28:10;;;;;;;9.98;6.62;;;;;;;-3.06;72.15;101399.06;1753542;81;21056;-84
2021/12/07 04:30:39;;;;;;;8.48;5.80;;;;;;;-3.07;72.19;101394.70;1753565;80;21100;-85
2021/12/07 04:33:08;;;;;;;9.48;6.30;;;;;;;-3.07;72.17;101392.12;1753514;80;21104;-84
2021/12/07 04:35:38;;;;;;;9.65;6.70;;;;;;;-3.08;72.08;101398.02;1753646;81;21057;-85
2021/12/07 04:38:06;;;;;;;8.68;6.17;;;;;;;-3.08;72.11;101402.78;1753834;81;21774;-84
2021/12/07 04:40:32;;;;;;;9.05;5.90;;;;;;;-3.07;72.12;101400.73;1753637;81;21034;-84
2021/12/07 04:43:05;;;;;;;6.95;5.28;;;;;;;-3.05;71.96;101412.47;1748616;80;20982;-85
2021/12/07 04:45:38;;;;;;;9.35;6.60;;;;;;;-3.04;71.80;101413.91;1753191;80;21097;-84
2021/12/07 04:59:10;;;;;;;8.88;5.72;;;;;;;-3.10;71.51;101415.02;1750653;80;21030;-82
2021/12/07 05:01:43;;;;;;;8.95;5.75;;;;;;;-3.15;71.41;101415.90;1753584;81;21078;-82
2021/12/07 05:04:15;;;;;;;8.13;5.70;;;;;;;-3.25;71.18;101407.70;1757411;80;21774;-82
2021/12/07 05:06:47;;;;;;;9.23;6.25;;;;;;;-3.37;71.08;101407.50;1783143;79;21620;-80
2021/12/07 05:14:31;;;;;;;9.23;5.75;;;;;;;-3.80;71.02;101409.99;1784161;80;21077;-80
2021/12/07 05:38:36;;;;;;;13.98;8.38;;;;;;;-4.74;71.78;101407.98;1752282;80;21081;-80
2021/12/07 05:41:07;;;;;;;16.87;8.43;;;;;;;-4.82;71.83;101407.23;1784103;80;21098;-81
2021/12/07 05:43:34;;;;;;;13.08;7.45;;;;;;;-4.88;71.91;101414.33;1784043;80;21777;-79
2021/12/07 05:46:02;;;;;;;19.25;9.73;;;;;;;-4.90;72.01;101422.26;1753703;80;21077;-78
2021/12/07 05:48:31;;;;;;;19.52;8.85;;;;;;;-4.92;72.11;101429.84;1782768;80;21042;-80
2021/12/07 05:50:58;;;;;;;15.55;9.40;;;;;;;-4.94;72.13;101426.58;1784099;80;21038;-79
2021/12/07 05:53:26;;;;;;;13.85;8.73;;;;;;;-4.99;72.16;101432.56;1783555;80;21073;-79
2021/12/07 05:55:56;;;;;;;14.30;8.33;;;;;;;-5.14;72.18;101416.95;1783940;79;21693;-79
2021/12/07 05:58:24;;;;;;;11.97;7.47;;;;;;;-5.09;72.32;101443.59;1782920;80;21151;-79
2021/12/07 06:00:58;;;;;;;10.70;6.87;;;;;;;-5.16;72.22;101442.46;1783817;80;21166;-79
2021/12/07 06:03:20;;;;;;;11.68;8.03;;;;;;;-5.24;72.23;101435.65;1779958;80;21424;-80
2021/12/07 06:05:46;;;;;;;13.38;7.20;;;;;;;-5.30;72.26;101437.61;1784650;80;21077;-81
2021/12/07 06:08:13;;;;;;;10.70;7.05;;;;;;;-5.35;72.38;101428.20;1784611;80;21979;-81
2021/12/07 06:10:40;;;;;;;17.23;8.30;;;;;;;-5.42;72.28;101435.10;1784339;80;21105;-81
2021/12/07 06:13:08;;;;;;;14.18;7.55;;;;;;;-5.50;72.40;101434.34;1784237;80;21087;-80
2021/12/07 06:15:42;;;;;;;19.57;9.08;;;;;;;-5.54;72.46;101438.26;1783925;80;21078;-79
2021/12/07 06:18:12;;;;;;;14.13;8.25;;;;;;;-5.59;72.53;101439.84;1752561;80;21090;-80
2021/12/07 06:20:41;;;;;;;19.57;9.08;;;;;;;-5.63;72.58;101446.70;1783852;80;21604;-80
2021/12/07 06:23:09;;;;;;;21.73;9.73;;;;;;;-5.68;72.60;101448.81;1784080;79;21112;-80
2021/12/07 06:25:36;;;;;;;20.30;10.93;;;;;;;-5.74;72.70;101445.26;1783372;80;21042;-80
2021/12/07 06:28:03;;;;;;;18.35;10.08;;;;;;;-5.79;72.72;101443.87;1784552;80;21113;-80
2021/12/07 06:30:30;;;;;;;19.42;9.78;;;;;;;-5.82;72.72;101442.27;1784455;80;21073;-80
2021/12/07 06:32:59;;;;;;;14.05;9.38;;;;;;;-5.84;72.92;101443.78;1783413;80;21058;-80
2021/12/07 06:35:25;;;;;;;21.17;10.05;;;;;;;-5.85;72.87;101445.84;1754215;81;21061;-80
2021/12/07 06:37:52;;;;;;;17.90;9.80;;;;;;;-5.90;72.76;101448.30;1754651;80;21057;-80
2021/12/07 06:40:19;;;;;;;17.37;8.90;;;;;;;-5.91;72.82;101447.78;1754650;81;21052;-80
2021/12/07 06:42:45;;;;;;;20.60;8.38;;;;;;;-5.93;72.74;101456.95;1754564;81;21116;-80
2021/12/07 06:45:12;;;;;;;13.72;8.48;;;;;;;-5.95;72.68;101464.89;1754747;80;21805;-80
2021/12/07 06:47:39;;;;;;;14.93;8.33;;;;;;;-5.98;72.60;101467.16;1754658;80;21104;-80
2021/12/07 06:50:08;;;;;;;12.93;7.78;;;;;;;-6.00;72.68;101467.39;1754796;80;21108;-80
2021/12/07 06:52:35;;;;;;;17.80;8.88;;;;;;;-6.03;72.63;101468.34;1754645;80;21112;-79
2021/12/07 06:55:04;;;;;;;13.72;7.25;;;;;;;-6.07;72.62;101473.53;1754959;81;22285;-80
2021/12/07 06:57:32;;;;;;;14.18;8.20;;;;;;;-6.08;72.66;101473.91;1754685;81;21073;-80
2021/12/07 06:59:59;;;;;;;12.33;7.78;;;;;;;-6.23;72.55;101442.88;1754896;81;21014;-80
2021/12/07 07:02:25;;;;;;;12.03;7.78;;;;;;;-6.08;72.61;101476.83;1754970;80;21049;-81
2021/12/07 07:04:52;;;;;;;16.17;9.15;;;;;;;-6.09;72.61;101476.31;1755033;80;21053;-80
2021/12/07 07:07:22;;;;;;;11.55;7.55;;;;;;;-6.08;72.66;101480.32;1721686;81;21143;-80
2021/12/07 07:09:47;;;;;;;16.48;8.85;;;;;;;-6.04;72.60;101485.73;1754544;80;21768;-80
2021/12/07 07:12:14;;;;;;;19.45;9.85;;;;;;;-6.04;72.56;101485.39;1754655;81;21112;-80
2021/12/07 07:14:40;;;;;;;24.63;9.85;;;;;;;-6.01;72.57;101482.22;1754745;81;21054;-80
2021/12/07 07:17:07;;;;;;;23.73;9.73;;;;;;;-5.97;72.52;101493.31;1754755;80;21042;-80
2021/12/07 07:19:34;;;;;;;34.03;11.25;;;;;;;-5.94;72.55;101491.04;1754821;81;21591;-80
2021/12/07 07:22:02;;;;;;;39.05;12.25;;;;;;;-5.92;72.46;101489.16;1754829;81;21763;-80
2021/12/07 07:24:30;;;;;;;35.13;11.55;;;;;;;-5.92;72.38;101494.28;1754799;80;21080;-80
2021/12/07 07:26:59;;;;;;;25.35;9.68;;;;;;;-5.91;72.35;101489.70;1754565;81;21006;-80
2021/12/07 07:29:26;;;;;;;31.73;10.25;;;;;;;-5.89;72.26;101494.99;1754605;80;20990;-80
2021/12/07 07:31:53;;;;;;;18.10;9.13;;;;;;;-5.88;72.29;101491.66;1754910;80;21093;-80
2021/12/07 07:34:19;;;;;;;19.98;9.88;;;;;;;-5.84;72.23;101502.75;1754817;80;21744;-80
2021/12/07 07:36:48;;;;;;;17.45;9.13;;;;;;;-5.84;72.24;101504.03;1754647;81;21092;-80
2021/12/07 07:39:14;;;;;;;16.90;8.83;;;;;;;-5.77;72.19;101501.73;1754924;80;21033;-80
2021/12/07 07:41:41;;;;;;;15.50;8.48;;;;;;;-5.75;72.05;101498.95;1754844;80;21140;-80
2021/12/07 07:44:08;;;;;;;13.83;7.33;;;;;;;-5.71;72.00;101497.22;1755064;80;21162;-80
2021/12/07 07:46:34;;;;;;;14.50;6.65;;;;;;;-5.66;72.03;101494.75;1754788;80;22658;-80
2021/12/07 07:49:02;;;;;;;12.65;6.83;;;;;;;-5.59;71.96;101493.70;1760028;79;20983;-80
2021/12/07 07:51:29;;;;;;;12.23;6.60;;;;;;;-5.60;71.92;101498.31;1784808;78;21103;-80
2021/12/07 07:53:58;;;;;;;13.40;7.05;;;;;;;-5.54;72.02;101504.05;1772565;78;21120;-80
2021/12/07 07:56:24;;;;;;;15.90;7.42;;;;;;;-5.47;71.91;101512.91;1774891;78;21066;-80
2021/12/07 07:58:51;;;;;;;16.30;8.30;;;;;;;-5.45;71.89;101515.25;1766751;80;22453;-80
2021/12/07 08:01:18;;;;;;;17.55;7.72;;;;;;;-5.41;71.86;101514.80;1776120;79;21138;-80
2021/12/07 08:03:44;;;;;;;13.98;7.25;;;;;;;-5.38;71.81;101514.22;1762635;78;21578;-80
2021/12/07 08:06:11;;;;;;;12.78;7.35;;;;;;;-5.37;71.74;101513.06;1766019;79;20998;-80
2021/12/07 08:08:38;;;;;;;13.05;6.47;;;;;;;-5.34;71.73;101526.59;1764954;79;21635;-80
2021/12/07 08:11:05;;;;;;;14.38;7.83;;;;;;;-5.34;71.67;101522.75;1758393;80;22671;-80
2021/12/07 08:13:31;;;;;;;19.02;9.40;;;;;;;-5.29;71.77;101526.69;1765591;78;21663;-81
2021/12/07 08:15:58;;;;;;;13.93;7.80;;;;;;;-5.22;71.73;101528.20;1770771;79;21100;-80
2021/12/07 08:18:25;;;;;;;17.37;8.20;;;;;;;-5.18;71.75;101538.94;1768962;79;21097;-80
2021/12/07 08:20:51;;;;;;;16.07;8.28;;;;;;;-5.16;71.69;101538.71;1761351;80;21062;-80
2021/12/07 08:23:20;;;;;;;14.55;7.12;;;;;;;-5.13;71.62;101536.81;1771341;79;21466;-80
2021/12/07 08:25:49;;;;;;;16.57;7.92;;;;;;;-5.09;71.67;101533.45;1764973;80;21758;-80
2021/12/07 08:28:19;;;;;;;12.93;7.35;;;;;;;-5.03;71.57;101537.00;1762261;80;21135;-80
2021/12/07 08:30:44;;;;;;;14.85;6.87;;;;;;;-5.05;71.46;101532.05;1754820;81;21061;-80
2021/12/07 08:33:12;;;;;;;15.72;7.47;;;;;;;-5.04;71.49;101535.55;1754249;81;21052;-80
2021/12/07 08:35:39;;;;;;;18.67;7.72;;;;;;;-5.00;71.56;101539.84;1754582;81;21808;-81
2021/12/07 08:38:07;;;;;;;16.05;8.28;;;;;;;-4.94;71.62;101535.70;1754978;81;21020;-80
2021/12/07 08:40:34;;;;;;;16.90;8.18;;;;;;;-4.92;71.51;101541.89;1755042;81;21300;-80
2021/12/07 08:43:01;;;;;;;16.70;7.85;;;;;;;-4.88;71.46;101544.00;1754627;81;21016;-80
2021/12/07 08:45:27;;;;;;;18.37;8.23;;;;;;;-4.91;71.43;101545.91;1754626;81;21076;-80
2021/12/07 08:47:54;;;;;;;16.05;8.53;;;;;;;-4.89;71.57;101540.53;1754658;81;21742;-80
2021/12/07 08:50:23;;;;;;;22.30;10.63;;;;;;;-4.85;71.59;101538.28;1754664;81;21048;-81
2021/12/07 08:52:51;;;;;;;17.80;10.13;;;;;;;-4.81;71.62;101536.16;1754808;81;21071;-81
2021/12/07 09:00:36;;;;;;;26.10;11.75;;;;;;;-4.73;71.63;101528.84;1754996;81;21786;-80
2021/12/07 09:03:03;;;;;;;20.85;9.98;;;;;;;-4.72;71.65;101523.32;1755011;81;21071;-80
2021/12/07 09:05:30;;;;;;;20.30;10.95;;;;;;;-4.68;71.77;101524.14;1754697;81;21213;-80
2021/12/07 09:07:58;;;;;;;16.77;9.65;;;;;;;-4.69;71.58;101524.92;1754374;81;21088;-80
2021/12/07 09:10:25;;;;;;;16.50;8.70;;;;;;;-4.72;71.62;101523.32;1754869;81;21051;-80
2021/12/07 09:12:55;;;;;;;16.17;8.98;;;;;;;-4.71;71.73;101522.20;1755076;81;22334;-80
2021/12/07 09:15:20;;;;;;;15.03;7.97;;;;;;;-4.69;71.70;101530.95;1754326;81;21115;-80
2021/12/07 09:17:46;;;;;;;12.95;8.03;;;;;;;-4.70;71.67;101523.98;1755024;81;21255;-80
2021/12/07 09:20:16;;;;;;;14.80;8.28;;;;;;;-4.64;71.73;101528.82;1754768;81;21580;-81
2021/12/07 09:22:44;;;;;;;10.88;7.20;;;;;;;-4.71;71.59;101533.75;1754853;81;21060;-81
2021/12/07 09:25:11;;;;;;;13.08;6.67;;;;;;;-4.68;71.75;101531.85;1754863;81;21757;-81
2021/12/07 09:27:38;;;;;;;12.43;7.80;;;;;;;-4.67;71.71;101528.89;1754696;81;21055;-81
2021/12/07 09:30:07;;;;;;;10.82;6.53;;;;;;;-4.67;71.74;101532.75;1754854;81;21024;-80
2021/12/07 09:32:35;;;;;;;11.12;5.90;;;;;;;-4.68;71.70;101536.98;1720154;81;21164;-80
2021/12/07 09:35:06;;;;;;;10.68;6.92;;;;;;;-4.67;71.72;101537.53;1758505;81;21087;-80
2021/12/07 09:37:33;;;;;;;11.78;6.72;;;;;;;-4.69;71.68;101538.66;1762838;81;22224;-81
2021/12/07 09:40:00;;;;;;;13.70;7.70;;;;;;;-4.72;71.63;101533.59;1762754;81;21632;-80
2021/12/07 09:42:27;;;;;;;11.93;7.30;;;;;;;-4.73;71.58;101535.63;1763077;81;21059;-81
2021/12/07 09:44:53;;;;;;;12.43;7.92;;;;;;;-4.77;71.52;101538.27;1762840;81;21545;-81
2021/12/07 09:47:20;;;;;;;17.17;8.73;;;;;;;-4.84;71.47;101537.51;1762893;81;21059;-81
2021/12/07 09:49:47;;;;;;;14.98;8.20;;;;;;;-4.83;71.68;101535.48;1762913;81;22549;-81
2021/12/07 09:52:13;;;;;;;12.10;6.58;;;;;;;-4.80;71.73;101534.52;1762920;81;21333;-80
2021/12/07 09:54:40;;;;;;;12.65;7.42;;;;;;;-4.78;71.63;101539.03;1762819;81;21580;-81
2021/12/07 09:57:07;;;;;;;11.65;6.65;;;;;;;-4.79;71.58;101538.49;1762827;81;21129;-80
2021/12/07 09:59:33;;;;;;;12.00;7.35;;;;;;;-4.72;71.72;101534.87;1763056;81;21027;-81
2021/12/07 10:02:03;;;;;;;11.40;6.55;;;;;;;-4.64;71.82;101532.67;1763150;81;22526;-81
2021/12/07 10:04:28;;;;;;;9.70;6.03;;;;;;;-4.56;71.90;101534.70;1762985;81;21043;-80
2021/12/07 10:06:56;;;;;;;12.78;7.12;;;;;;;-4.47;71.88;101525.71;1763117;81;21558;-81
2021/12/07 10:09:22;;;;;;;10.63;6.80;;;;;;;-4.43;71.72;101523.96;1762987;81;21066;-81
2021/12/07 10:11:53;;;;;;;12.40;6.78;;;;;;;-4.40;71.51;101526.84;1762932;81;21624;-81
2021/12/07 10:14:20;;;;;;;15.60;6.70;;;;;;;-4.37;71.43;101527.15;1762849;81;21738;-81
2021/12/07 10:16:48;;;;;;;13.58;6.53;;;;;;;-4.32;71.34;101532.33;1762952;81;21063;-81
2021/12/07 10:19:31;;;;;;;13.22;6.45;;;;;;;-4.31;71.28;101523.88;1762988;81;21127;-80
2021/12/07 10:22:05;;;;;;;9.18;6.25;;;;;;;-4.27;71.20;101530.22;1762804;81;21588;-80
2021/12/07 10:24:39;;;;;;;10.93;5.92;;;;;;;-4.21;71.21;101529.13;1762816;81;21075;-79
2021/12/07 10:27:02;;;;;;;13.75;6.62;;;;;;;-4.18;70.94;101521.72;1761841;81;23174;-81
2021/12/07 10:29:29;;;;;;;10.98;5.65;;;;;;;-4.12;70.82;101536.83;1762868;81;21015;-80
2021/12/07 10:32:01;;;;;;;11.75;6.08;;;;;;;-4.10;70.49;101530.17;1762657;81;21095;-80
2021/12/07 10:34:37;;;;;;;13.50;6.45;;;;;;;-4.32;70.26;101494.70;1762110;81;21086;-80
2021/12/07 10:37:14;;;;;;;10.55;5.58;;;;;;;-4.13;70.14;101527.30;1754615;81;21139;-80
2021/12/07 10:39:51;;;;;;;9.13;5.37;;;;;;;-4.12;69.98;101526.16;1754965;81;21776;-80
2021/12/07 10:42:25;;;;;;;15.20;7.83;;;;;;;-4.08;69.95;101523.50;1754402;81;21044;-81
2021/12/07 10:44:52;;;;;;;14.20;6.95;;;;;;;-4.02;69.98;101518.05;1745319;81;21098;-80
2021/12/07 10:47:23;;;;;;;11.28;6.60;;;;;;;-4.00;69.83;101519.09;1754950;81;21032;-80
2021/12/07 10:49:54;;;;;;;8.80;5.40;;;;;;;-3.96;69.77;101513.12;1754979;81;21111;-81
2021/12/07 10:52:34;;;;;;;7.87;5.35;;;;;;;-3.91;69.71;101521.25;1755048;81;21899;-80
2021/12/07 10:55:22;;;;;;;8.28;4.87;;;;;;;-3.91;69.54;101522.54;1754569;81;21055;-80
2021/12/07 10:58:04;;;;;;;9.68;4.70;;;;;;;-3.86;69.42;101521.31;1754868;81;21204;-80
2021/12/07 11:00:40;;;;;;;6.50;4.40;;;;;;;-3.85;69.14;101517.97;1755034;81;21577;-80
2021/12/07 11:03:17;;;;;;;8.65;4.42;;;;;;;-3.84;68.94;101521.08;1754932;81;21390;-80
2021/12/07 11:05:54;;;;;;;8.48;4.53;;;;;;;-3.84;68.73;101515.04;1754903;81;21699;-80
2021/12/07 11:08:25;;;;;;;16.77;6.47;;;;;;;-3.86;68.56;101513.99;1754986;81;21060;-80
2021/12/07 11:10:52;;;;;;;11.40;5.85;;;;;;;-3.91;68.41;101512.25;1754944;81;21514;-80
2021/12/07 11:13:24;;;;;;;15.88;6.45;;;;;;;-3.89;68.53;101509.83;1755002;81;21095;-82
2021/12/07 11:15:58;;;;;;;9.40;5.33;;;;;;;-3.86;68.43;101508.84;1755051;81;21618;-80
2021/12/07 11:18:28;;;;;;;12.25;4.70;;;;;;;-3.85;68.26;101505.11;1755144;81;21775;-80
2021/12/07 11:20:58;;;;;;;6.35;4.00;;;;;;;-3.87;68.01;101507.02;1755097;81;21067;-80
2021/12/07 11:23:29;;;;;;;9.85;4.78;;;;;;;-3.89;67.84;101507.26;1755041;80;21060;-80
2021/12/07 11:31:51;;;;;;;10.18;5.00;;;;;;;-3.98;67.45;101499.21;1754806;81;21847;-80
2021/12/07 11:34:31;;;;;;;10.28;4.67;;;;;;;-4.00;67.21;101490.41;1754706;81;21075;-80
2021/12/07 11:37:13;;;;;;;13.65;6.05;;;;;;;-4.00;67.28;101487.84;1753075;80;21075;-80
2021/12/07 11:39:48;;;;;;;11.25;4.75;;;;;;;-4.00;67.06;101492.98;1728177;81;21155;-80
2021/12/07 11:42:27;;;;;;;9.88;4.45;;;;;;;-4.03;66.97;101486.68;1754692;81;21589;-80
2021/12/07 11:45:08;;;;;;;9.93;4.10;;;;;;;-4.01;66.93;101491.19;1754496;81;21828;-80
2021/12/07 11:47:43;;;;;;;4.42;3.30;;;;;;;-4.00;66.78;101485.27;1754256;81;21067;-80
2021/12/07 11:50:36;;;;;;;4.78;3.67;;;;;;;-4.01;66.61;101486.05;1754609;81;21238;-80
2021/12/07 11:53:10;;;;;;;7.70;3.10;;;;;;;-4.00;66.45;101484.37;1754878;81;21542;-80
2021/12/07 11:55:38;;;;;;;6.70;3.80;;;;;;;-4.00;66.40;101487.84;1754877;81;21558;-80
2021/12/07 11:58:07;;;;;;;8.10;4.08;;;;;;;-3.99;66.43;101487.09;1754362;81;22601;-80
2021/12/07 12:00:37;;;;;;;11.53;4.12;;;;;;;-3.95;66.47;101492.16;1754402;81;21059;-80
2021/12/07 12:03:06;;;;;;;6.97;4.20;;;;;;;-3.91;66.43;101489.11;1753886;81;21336;-82
2021/12/07 12:05:34;;;;;;;8.98;4.83;;;;;;;-3.87;66.47;101493.77;1754745;81;21520;-80
2021/12/07 12:08:01;;;;;;;6.83;3.98;;;;;;;-3.84;66.40;101490.61;1754542;81;21126;-80
2021/12/07 12:10:29;;;;;;;7.97;3.80;;;;;;;-3.81;66.29;101487.94;1749484;81;21697;-80
2021/12/07 12:13:19;;;;;;;8.48;4.22;;;;;;;-3.79;66.28;101486.41;1754602;81;21104;-81
2021/12/07 12:16:22;;;;;;;12.40;4.53;;;;;;;-3.78;66.13;101484.73;1754422;80;21130;-80
2021/12/07 12:19:29;;;;;;;10.00;5.45;;;;;;;-3.77;66.08;101482.31;1754835;81;21138;-80
2021/12/07 12:22:17;;;;;;;9.38;5.08;;;;;;;-3.75;66.12;101493.66;1729843;81;21126;-81
2021/12/07 12:24:54;;;;;;;11.35;6.10;;;;;;;-3.74;66.05;101489.41;1754289;81;21808;-80
2021/12/07 12:27:25;;;;;;;12.93;5.75;;;;;;;-3.76;65.93;101489.64;1723398;81;21071;-80
2021/12/07 12:29:55;;;;;;;8.53;5.03;;;;;;;-3.79;65.94;101483.84;1749491;81;21239;-80
2021/12/07 12:32:38;;;;;;;8.90;5.03;;;;;;;-3.80;66.03;101485.88;1754561;81;21366;-80
2021/12/07 12:35:07;;;;;;;14.35;5.30;;;;;;;-3.78;66.04;101484.34;1754696;81;21597;-80
2021/12/07 12:37:34;;;;;;;22.22;5.78;;;;;;;-3.76;66.06;101478.96;1754416;81;21822;-80
2021/12/07 12:40:08;;;;;;;8.75;5.35;;;;;;;-3.76;65.96;101475.11;1754312;81;21532;-80
2021/12/07 12:42:44;;;;;;;10.40;5.12;;;;;;;-3.79;65.81;101468.41;1753888;81;21084;-80
2021/12/07 12:45:23;;;;;;;8.80;4.30;;;;;;;-3.79;65.89;101469.69;1754546;81;21055;-80
2021/12/07 12:48:12;;;;;;;9.03;4.53;;;;;;;-3.80;65.88;101469.55;1754251;81;21106;-80
2021/12/07 12:50:51;;;;;;;13.88;6.30;;;;;;;-3.81;65.82;101468.65;1753833;80;21845;-80
2021/12/07 12:53:31;;;;;;;14.58;6.22;;;;;;;-3.82;65.76;101465.53;1754744;81;21056;-80
2021/12/07 12:56:07;;;;;;;14.07;6.33;;;;;;;-3.87;65.75;101462.01;1754864;81;21152;-80
2021/12/07 12:58:41;;;;;;;11.38;5.00;;;;;;;-3.89;65.85;101459.68;1754804;81;21043;-79
2021/12/07 13:01:16;;;;;;;10.38;5.05;;;;;;;-3.91;65.83;101462.09;1754714;81;21106;-80
2021/12/07 13:04:15;;;;;;;9.00;4.60;;;;;;;-3.95;65.75;101458.72;1754675;81;22514;-82
2021/12/07 13:06:51;;;;;;;9.28;5.42;;;;;;;-3.99;65.76;101459.20;1754630;81;21349;-80
2021/12/07 13:09:30;;;;;;;11.83;5.33;;;;;;;-4.03;65.73;101457.11;1754623;81;21122;-80
2021/12/07 13:12:18;;;;;;;8.00;4.65;;;;;;;-4.06;65.77;101449.98;1754318;81;21170;-80